Wilmington, North Carolina
Current Conditions -  °F | °C
As of 8:53 PM on Sunday 21 Dec 2014 (Local Time) from KILM Reporting Station
Light Rain Light Rain  
Wind Chill: 40°   Ceiling: 2200
Heat Index: 44°   Visibility: 6mi
Dew Point: 40°   Wind: 8mph
Humidity: 85%   Direction: 20°NNE
Pressure: 30.2"   Gusts: NA
Location:  34.24°N, 77.94°W
Report Text: KILM 220153Z 02007KT 6SM -RA BR OVC022 07/04 A3020 RMK AO2 RAB22 SLP226 P0001 T00670044
Loading
Personal Weather Stations






























Interactive Weather Map New forecast layout! Learn more

10-Day Weather Forecast

Advertisements
Track Severe Weather on mobile